Time;durP1;ratioP1;P1;durP2;ratioP2;P2;SDS_P1;SDS_P2;PMS_P1;PMS_P2;Temp;Humidity;BMP_temperature;BMP_pressure;BME280_temperature;BME280_humidity;BME280_pressure;Samples;Min_cycle;Max_cycle;Signal;HPM_P1;HPM_P2
2023/04/19 00:01:32;;;;;;;26.47;7.97;;;;;;;9.77;97.88;100123.63;123011;1102;104373;-77
2023/04/19 00:04:04;;;;;;;22.80;8.10;;;;;;;9.75;97.27;100130.53;122838;1102;104293;-78
2023/04/19 00:06:35;;;;;;;23.15;7.95;;;;;;;9.74;98.27;100135.72;122931;1105;104705;-77
2023/04/19 00:09:06;;;;;;;24.00;8.53;;;;;;;9.70;97.88;100132.12;123100;1102;104232;-78
2023/04/19 00:11:38;;;;;;;20.57;8.60;;;;;;;9.67;98.11;100132.02;122904;1102;104315;-78
2023/04/19 00:14:09;;;;;;;20.90;8.20;;;;;;;9.64;98.13;100132.79;122800;1102;104416;-78
2023/04/19 00:16:41;;;;;;;22.55;9.20;;;;;;;9.62;98.63;100131.86;123043;1102;104316;-79
2023/04/19 00:19:12;;;;;;;20.90;7.70;;;;;;;9.58;98.87;100126.47;123021;1105;104233;-79
2023/04/19 00:21:43;;;;;;;20.73;8.37;;;;;;;9.55;98.84;100132.48;122891;1102;104241;-78
2023/04/19 00:24:14;;;;;;;19.47;8.10;;;;;;;9.53;98.37;100131.55;122802;1102;104766;-79
2023/04/19 00:26:46;;;;;;;21.43;7.60;;;;;;;9.53;98.87;100132.42;122765;1105;104402;-78
2023/04/19 00:29:25;;;;;;;23.33;8.07;;;;;;;9.51;98.00;100128.87;122899;1103;104396;-78
2023/04/19 00:31:59;;;;;;;20.40;7.97;;;;;;;9.50;98.25;100128.83;122898;1102;104264;-78
2023/04/19 00:34:31;;;;;;;20.93;8.73;;;;;;;9.51;98.63;100128.87;122832;1102;104290;-77
2023/04/19 00:37:03;;;;;;;21.30;8.07;;;;;;;9.52;98.61;100124.52;122810;1105;104309;-78
2023/04/19 00:39:34;;;;;;;18.60;8.10;;;;;;;9.54;98.84;100125.48;122720;1103;104406;-79
2023/04/19 00:42:08;;;;;;;19.00;7.17;;;;;;;9.54;98.35;100117.63;123022;1102;104328;-79
2023/04/19 00:44:40;;;;;;;21.80;8.87;;;;;;;9.56;97.98;100112.44;122908;1102;104240;-78
2023/04/19 00:47:11;;;;;;;19.83;8.67;;;;;;;9.56;99.01;100112.44;122874;1102;104290;-78
2023/04/19 00:49:43;;;;;;;16.83;7.60;;;;;;;9.57;98.63;100119.44;123048;1102;104319;-78
2023/04/19 00:52:14;;;;;;;20.07;8.83;;;;;;;9.58;99.07;100115.98;122913;1105;104425;-78
2023/04/19 00:54:46;;;;;;;22.73;8.43;;;;;;;9.56;98.14;100113.31;122862;1102;104254;-78
2023/04/19 00:57:18;;;;;;;16.70;8.40;;;;;;;9.57;98.65;100104.63;122786;1105;104373;-78
2023/04/19 00:59:50;;;;;;;23.70;8.50;;;;;;;9.57;99.21;100107.25;122851;1103;104354;-77
2023/04/19 01:02:22;;;;;;;22.17;8.50;;;;;;;9.56;99.39;100104.58;122848;1102;104425;-77
2023/04/19 01:04:54;;;;;;;20.33;7.87;;;;;;;9.52;100.00;100096.62;123070;1102;104336;-78
2023/04/19 01:07:25;;;;;;;20.80;8.40;;;;;;;9.50;100.00;100098.27;122953;1102;104255;-79
2023/04/19 01:09:57;;;;;;;19.83;8.03;;;;;;;9.47;99.55;100095.59;122951;1102;104252;-78
2023/04/19 01:12:28;;;;;;;18.07;7.80;;;;;;;9.46;99.65;100087.67;123071;1102;104312;-78
2023/04/19 01:14:59;;;;;;;20.07;8.57;;;;;;;9.46;99.98;100085.94;122904;1102;104367;-77
2023/04/19 01:17:32;;;;;;;21.97;8.43;;;;;;;9.43;99.35;100084.95;122742;1102;104332;-77
2023/04/19 01:20:06;;;;;;;20.70;7.80;;;;;;;9.44;99.14;100091.95;122845;1105;104264;-78
2023/04/19 01:22:39;;;;;;;20.00;7.80;;;;;;;9.44;99.27;100091.95;122889;1102;104414;-78
2023/04/19 01:25:11;;;;;;;21.23;8.40;;;;;;;9.41;99.06;100092.76;122800;1102;104335;-79
2023/04/19 01:27:43;;;;;;;20.37;8.30;;;;;;;9.42;99.37;100085.78;122921;1102;104286;-78
2023/04/19 01:30:15;;;;;;;20.05;8.00;;;;;;;9.40;100.00;100084.85;122906;1102;104350;-79
2023/04/19 01:32:46;;;;;;;24.47;9.03;;;;;;;9.38;100.00;100087.42;122834;1102;104363;-79
2023/04/19 01:35:17;;;;;;;24.00;8.07;;;;;;;9.33;100.00;100076.79;122925;1102;104213;-78
2023/04/19 01:37:49;;;;;;;22.77;8.53;;;;;;;9.30;100.00;100070.53;123247;1102;104268;-79
2023/04/19 01:40:24;;;;;;;20.57;8.13;;;;;;;9.29;100.00;100077.51;122869;1102;104299;-78
2023/04/19 01:42:55;;;;;;;21.87;8.43;;;;;;;9.25;99.97;100080.84;122790;1105;104373;-78
2023/04/19 01:45:26;;;;;;;21.33;8.20;;;;;;;9.26;100.00;100080.02;122854;1102;104338;-79
2023/04/19 01:47:58;;;;;;;19.70;8.23;;;;;;;9.26;100.00;100076.53;122987;1102;104238;-79
2023/04/19 01:50:29;;;;;;;24.07;9.30;;;;;;;9.26;100.00;100079.14;122925;1102;104232;-78
2023/04/19 01:53:01;;;;;;;22.07;8.03;;;;;;;9.24;100.00;100076.47;123090;1102;104211;-78
2023/04/19 01:55:32;;;;;;;22.65;8.05;;;;;;;9.24;99.41;100076.47;122837;1103;104740;-78
2023/04/19 01:58:03;;;;;;;22.90;8.40;;;;;;;9.24;99.32;100076.47;122821;1102;104281;-78
2023/04/19 02:00:35;;;;;;;21.80;8.43;;;;;;;9.24;99.53;100081.70;122932;1102;104380;-78
2023/04/19 02:03:08;;;;;;;22.40;8.87;;;;;;;9.24;100.00;100078.18;122915;1102;104653;-78
2023/04/19 02:05:41;;;;;;;23.83;8.63;;;;;;;9.23;100.00;100071.19;123129;1102;104251;-79
2023/04/19 02:08:12;;;;;;;22.43;8.60;;;;;;;9.22;100.00;100080.74;122977;1106;104700;-79
2023/04/19 02:10:43;;;;;;;21.03;8.97;;;;;;;9.22;100.00;100079.86;123034;1103;104402;-78
2023/04/19 02:13:15;;;;;;;21.30;9.00;;;;;;;9.22;99.75;100078.13;122979;1103;104300;-78
2023/04/19 02:15:46;;;;;;;22.27;8.60;;;;;;;9.22;99.96;100072.89;123153;1102;104258;-79
2023/04/19 02:18:17;;;;;;;22.13;8.87;;;;;;;9.20;99.73;100069.34;123206;1102;104322;-79
2023/04/19 02:20:49;;;;;;;25.37;9.00;;;;;;;9.18;100.00;100065.79;123042;1105;104348;-79
2023/04/19 02:23:20;;;;;;;23.83;8.73;;;;;;;9.16;100.00;100070.06;123061;1103;104437;-79
2023/04/19 02:25:52;;;;;;;26.40;9.10;;;;;;;9.12;100.00;100063.84;122893;1102;104383;-79
2023/04/19 02:28:23;;;;;;;24.57;9.33;;;;;;;9.10;100.00;100065.52;123035;1102;104285;-79
2023/04/19 02:30:55;;;;;;;23.53;9.80;;;;;;;9.08;100.00;100066.30;123091;1102;104259;-79
2023/04/19 02:33:27;;;;;;;20.57;8.57;;;;;;;9.06;100.00;100062.75;123097;1103;104466;-80
2023/04/19 02:35:59;;;;;;;21.10;9.13;;;;;;;9.02;100.00;100059.11;123173;1105;104466;-80
2023/04/19 02:38:31;;;;;;;23.30;9.83;;;;;;;9.03;100.00;100062.64;123188;1103;104288;-78
2023/04/19 02:41:03;;;;;;;22.00;10.03;;;;;;;9.04;100.00;100060.08;123106;1102;105606;-79
2023/04/19 02:43:34;;;;;;;25.53;10.60;;;;;;;9.04;100.00;100061.78;123000;1105;104364;-79
2023/04/19 02:46:05;;;;;;;22.17;10.07;;;;;;;9.02;100.00;100050.37;123120;1105;104792;-79
2023/04/19 02:48:37;;;;;;;21.33;9.93;;;;;;;8.97;100.00;100048.48;123211;1103;104348;-79
2023/04/19 02:51:08;;;;;;;21.20;8.93;;;;;;;8.98;100.00;100052.02;123328;1102;104287;-79
2023/04/19 02:53:40;;;;;;;27.50;10.47;;;;;;;8.95;100.00;100044.93;123451;1102;104280;-79
2023/04/19 02:56:11;;;;;;;25.07;10.13;;;;;;;8.96;100.00;100044.11;123281;1105;104409;-78
2023/04/19 02:58:43;;;;;;;22.90;9.63;;;;;;;8.93;100.00;100046.62;123234;1102;104427;-80
2023/04/19 03:01:14;;;;;;;23.43;10.13;;;;;;;8.91;100.00;100043.06;123230;1105;104242;-80
2023/04/19 03:03:46;;;;;;;28.83;11.17;;;;;;;8.92;100.00;100044.82;123767;1105;104322;-80
2023/04/19 03:06:17;;;;;;;30.43;10.60;;;;;;;8.91;100.00;100042.16;123737;1102;104277;-80
2023/04/19 03:08:48;;;;;;;24.40;10.53;;;;;;;8.89;100.00;100043.84;123667;1102;104447;-80
2023/04/19 03:11:21;;;;;;;21.30;10.55;;;;;;;8.88;100.00;100045.58;123599;1105;104316;-80
2023/04/19 03:13:52;;;;;;;25.87;11.20;;;;;;;8.88;100.00;100035.11;123616;1102;104258;-80
2023/04/19 03:16:23;;;;;;;24.90;10.37;;;;;;;8.90;100.00;100041.27;123482;1103;104399;-80
2023/04/19 03:18:56;;;;;;;22.80;11.23;;;;;;;8.88;100.00;100035.11;123264;1103;104856;-79
2023/04/19 03:21:29;;;;;;;29.37;12.00;;;;;;;8.87;100.00;100029.82;123364;1105;104432;-79
2023/04/19 03:24:01;;;;;;;26.77;11.50;;;;;;;8.86;100.00;100028.91;123311;1102;104338;-79
2023/04/19 03:26:32;;;;;;;26.53;11.23;;;;;;;8.86;100.00;100017.56;123371;1105;104319;-80
2023/04/19 03:29:05;;;;;;;28.20;12.27;;;;;;;8.84;100.00;100022.74;123339;1102;104346;-79
2023/04/19 03:31:59;;;;;;;25.40;11.97;;;;;;;8.83;100.00;100017.45;123450;1102;104353;-80
2023/04/19 03:34:30;;;;;;;30.03;12.40;;;;;;;8.84;100.00;100024.48;123575;1102;104255;-80
2023/04/19 03:37:01;;;;;;;27.87;13.07;;;;;;;8.84;100.00;100020.13;123985;1102;104319;-80
2023/04/19 03:39:35;;;;;;;26.80;12.20;;;;;;;8.86;100.00;100017.56;123516;1102;104258;-80
2023/04/19 03:42:08;;;;;;;29.15;12.00;;;;;;;8.86;100.00;100018.45;123240;1102;104210;-80
2023/04/19 03:44:59;;;;;;;27.43;12.83;;;;;;;8.84;100.00;100012.28;123534;1102;104261;-80
2023/04/19 03:47:30;;;;;;;25.17;13.00;;;;;;;8.85;100.00;100007.92;123385;1102;104376;-80
2023/04/19 03:50:02;;;;;;;27.87;12.87;;;;;;;8.83;100.00;100018.34;123460;1102;104230;-80
2023/04/19 03:52:35;;;;;;;26.90;14.23;;;;;;;8.81;100.00;100009.55;123301;1105;104338;-80
2023/04/19 03:55:08;;;;;;;39.47;14.50;;;;;;;8.82;100.00;100016.58;123149;1105;104287;-79
2023/04/19 03:57:41;;;;;;;116.93;23.53;;;;;;;8.83;100.00;100018.34;123323;1102;104354;-79
2023/04/19 04:00:19;;;;;;;43.00;15.47;;;;;;;8.86;100.00;100013.21;122993;1103;104508;-79
2023/04/19 04:02:53;;;;;;;29.57;13.60;;;;;;;8.86;100.00;100018.45;123142;1105;105499;-80
2023/04/19 04:05:27;;;;;;;30.33;13.50;;;;;;;8.88;100.00;100008.03;123138;1104;104342;-80
2023/04/19 04:07:58;;;;;;;36.67;14.40;;;;;;;8.89;100.00;100010.70;122967;1105;104377;-79
2023/04/19 04:10:30;;;;;;;30.23;13.63;;;;;;;8.89;100.00;100002.84;123051;1103;104258;-79
2023/04/19 04:13:01;;;;;;;28.43;14.03;;;;;;;8.87;100.00;100006.27;123133;1102;104348;-78
2023/04/19 04:15:41;;;;;;;31.10;14.30;;;;;;;8.88;100.00;100003.70;123049;1103;104389;-79
2023/04/19 04:18:15;;;;;;;30.37;14.23;;;;;;;8.87;100.00;99999.30;123239;1102;104290;-81
2023/04/19 04:20:46;;;;;;;28.50;13.73;;;;;;;8.88;100.00;100001.09;123206;1105;104377;-80
2023/04/19 04:23:20;;;;;;;27.67;13.40;;;;;;;8.89;100.00;99992.38;123455;1102;104287;-79
2023/04/19 04:26:00;;;;;;;28.63;14.07;;;;;;;8.92;100.00;99984.64;123444;1103;104370;-81
2023/04/19 04:28:38;;;;;;;28.00;14.63;;;;;;;8.97;100.00;99990.91;123542;1105;104330;-77
2023/04/19 04:31:11;;;;;;;31.17;14.27;;;;;;;9.00;100.00;99996.25;123334;1105;104300;-78
2023/04/19 04:33:44;;;;;;;32.50;14.47;;;;;;;9.03;100.00;99995.47;123286;1102;104261;-78
2023/04/19 04:36:17;;;;;;;31.23;14.85;;;;;;;9.08;100.00;99993.02;123443;1102;104370;-79
2023/04/19 04:38:49;;;;;;;28.80;14.53;;;;;;;9.09;100.00;99985.21;123366;1103;104326;-79
2023/04/19 04:41:21;;;;;;;31.07;14.30;;;;;;;9.10;100.00;99981.77;123495;1105;104398;-82
2023/04/19 04:43:52;;;;;;;34.25;15.50;;;;;;;9.12;100.00;99989.67;124196;1105;102144;-82
2023/04/19 04:46:26;;;;;;;33.58;15.32;;;;;;;9.12;100.00;99987.93;123913;1103;104264;-83
2023/04/19 04:48:58;;;;;;;30.93;14.43;;;;;;;9.17;100.00;99988.09;124185;1102;104246;-83
2023/04/19 04:51:30;;;;;;;28.90;14.40;;;;;;;9.23;100.00;99988.29;124410;1102;104187;-81
2023/04/19 04:54:02;;;;;;;30.97;14.93;;;;;;;9.27;100.00;99989.27;124032;1105;103293;-82
2023/04/19 04:56:34;;;;;;;31.33;13.97;;;;;;;9.34;100.00;99988.64;123841;1102;104213;-83
2023/04/19 04:59:06;;;;;;;27.43;14.83;;;;;;;9.38;100.00;99993.15;123895;1102;104287;-80
2023/04/19 05:01:41;;;;;;;30.67;14.27;;;;;;;9.43;100.00;99991.56;123717;1105;104262;-80
2023/04/19 05:04:13;;;;;;;32.07;13.73;;;;;;;9.45;100.00;99987.25;123956;1102;103337;-81
2023/04/19 05:06:44;;;;;;;27.97;14.10;;;;;;;9.46;100.00;99986.42;123695;1102;104188;-80
2023/04/19 05:09:16;;;;;;;26.60;13.17;;;;;;;9.49;100.00;99991.75;123950;1103;104415;-84
2023/04/19 05:11:47;;;;;;;28.73;13.47;;;;;;;9.53;100.00;99987.49;124108;1102;104290;-83
2023/04/19 05:14:18;;;;;;;24.47;13.07;;;;;;;9.53;100.00;99987.49;124070;1102;104203;-80
2023/04/19 05:16:50;;;;;;;29.07;14.60;;;;;;;9.57;100.00;99983.23;124525;1106;104287;-81
2023/04/19 05:19:22;;;;;;;29.30;13.20;;;;;;;9.63;100.00;99983.42;125046;1102;104255;-80
2023/04/19 05:22:01;;;;;;;25.07;13.57;;;;;;;9.67;100.00;99985.31;124558;1105;102300;-82
2023/04/19 05:24:32;;;;;;;28.77;13.87;;;;;;;9.69;100.00;99987.14;124865;1102;102305;-82
2023/04/19 05:27:04;;;;;;;32.07;14.37;;;;;;;9.71;100.00;99980.21;124612;1105;101929;-83
2023/04/19 05:29:35;;;;;;;28.80;13.33;;;;;;;9.72;100.00;99981.09;124496;1102;104351;-84
2023/04/19 05:32:09;;;;;;;28.85;14.15;;;;;;;9.72;100.00;99986.33;124733;1103;103837;-82
2023/04/19 05:34:47;;;;;;;28.17;12.77;;;;;;;9.73;100.00;99989.86;124492;1102;102487;-83
2023/04/19 05:37:19;;;;;;;26.30;12.80;;;;;;;9.69;100.00;99988.85;124577;1102;104264;-81
2023/04/19 05:39:51;;;;;;;27.50;13.57;;;;;;;9.69;100.00;99989.77;124649;1105;103304;-83
2023/04/19 05:42:23;;;;;;;29.80;12.80;;;;;;;9.70;100.00;99988.02;124634;1104;103058;-83
2023/04/19 05:44:57;;;;;;;25.20;13.63;;;;;;;9.71;100.00;99988.07;124247;1102;102339;-79
2023/04/19 05:47:28;;;;;;;27.13;12.33;;;;;;;9.74;100.00;99981.14;124247;1103;104495;-79
2023/04/19 05:50:20;;;;;;;27.77;12.70;;;;;;;9.78;100.00;99980.40;124224;1102;104232;-80
2023/04/19 05:53:04;;;;;;;28.37;12.80;;;;;;;9.80;100.00;99978.70;124253;1102;102680;-81
2023/04/19 05:55:39;;;;;;;27.73;12.07;;;;;;;9.85;100.00;99977.14;124652;1105;103040;-80
2023/04/19 05:58:11;;;;;;;27.27;12.93;;;;;;;9.92;100.00;99981.70;124755;1105;104510;-80
2023/04/19 06:00:42;;;;;;;27.30;13.40;;;;;;;9.99;100.00;99988.03;124496;1102;103327;-82
2023/04/19 06:03:15;;;;;;;34.93;13.23;;;;;;;10.08;100.00;99983.94;124394;1105;104237;-81
2023/04/19 06:05:49;;;;;;;27.90;12.73;;;;;;;10.16;100.00;99976.30;124435;1105;104316;-79
2023/04/19 06:08:31;;;;;;;24.20;11.50;;;;;;;10.25;100.00;99973.03;125185;1103;104181;-84
2023/04/19 06:11:06;;;;;;;27.53;11.23;;;;;;;10.30;100.00;99975.79;125310;1105;103131;-82
2023/04/19 06:13:42;;;;;;;23.63;11.00;;;;;;;10.38;100.00;99977.83;125134;1102;104352;-80
2023/04/19 06:16:41;;;;;;;28.30;10.30;;;;;;;10.48;100.00;99972.84;124543;1102;111790;-79
2023/04/19 06:19:20;;;;;;;23.10;10.70;;;;;;;10.53;100.00;99976.47;124479;1102;104243;-82
2023/04/19 06:22:00;;;;;;;24.35;10.65;;;;;;;10.61;100.00;99980.18;125397;1102;104163;-84
2023/04/19 06:24:42;;;;;;;;;;;;;;;10.63;100.00;99978.52;125177;1102;102775;-83
2023/04/19 06:27:16;;;;;;;24.57;9.70;;;;;;;10.67;100.00;99985.59;125246;1102;103081;-81
2023/04/19 06:29:54;;;;;;;23.90;9.33;;;;;;;10.70;100.00;99975.18;124308;1102;102257;-78
2023/04/19 06:32:28;;;;;;;26.63;8.73;;;;;;;10.73;100.00;99972.64;124329;1105;103057;-80
2023/04/19 06:35:09;;;;;;;26.40;10.37;;;;;;;10.73;100.00;99967.39;124508;1102;102706;-79
2023/04/19 06:37:50;;;;;;;26.87;9.27;;;;;;;10.87;100.00;99983.50;125238;1105;107119;-79
2023/04/19 06:40:33;;;;;;;21.40;9.20;;;;;;;10.91;100.00;99974.88;124504;1102;104188;-80
2023/04/19 06:43:11;;;;;;;22.97;8.77;;;;;;;10.95;100.00;99986.33;125089;1105;102757;-79
2023/04/19 06:45:47;;;;;;;21.43;9.50;;;;;;;10.99;100.00;99980.32;124481;1102;104245;-81
2023/04/19 06:48:21;;;;;;;23.93;9.10;;;;;;;11.13;100.00;99980.67;125387;1102;103953;-81
2023/04/19 06:50:53;;;;;;;22.77;9.10;;;;;;;11.22;100.00;99990.50;124480;1102;102646;-78
2023/04/19 06:53:25;;;;;;;25.57;8.90;;;;;;;11.25;100.00;99980.98;124547;1102;104274;-78
2023/04/19 06:56:05;;;;;;;20.53;8.70;;;;;;;11.36;100.00;99983.88;124515;1102;103751;-79
2023/04/19 06:58:38;;;;;;;24.80;8.77;;;;;;;11.42;100.00;99984.02;124452;1102;104693;-82
2023/04/19 07:01:13;;;;;;;26.37;9.00;;;;;;;11.53;100.00;99979.02;124691;1102;103203;-81
2023/04/19 07:03:49;;;;;;;20.50;8.10;;;;;;;11.61;100.00;99976.54;124656;1102;102996;-79
2023/04/19 07:06:20;;;;;;;23.90;8.80;;;;;;;11.62;100.00;99975.70;124619;1102;104214;-80
2023/04/19 07:08:56;;;;;;;20.83;8.30;;;;;;;11.63;100.00;99972.23;124775;1102;102741;-78
2023/04/19 07:11:43;;;;;;;17.25;7.70;;;;;;;11.62;100.00;99979.20;124608;1105;103093;-79
2023/04/19 07:14:20;;;;;;;19.90;8.50;;;;;;;11.64;100.00;99987.13;124626;1102;104261;-77
2023/04/19 07:16:55;;;;;;;24.60;8.60;;;;;;;11.69;100.00;99983.77;124560;1102;104319;-80
2023/04/19 07:19:27;;;;;;;;;;;;;;;11.79;100.00;99990.11;125357;1105;103193;-79
2023/04/19 07:21:59;;;;;;;22.50;8.63;;;;;;;11.80;100.00;99991.89;125229;1105;104255;-78
2023/04/19 07:24:34;;;;;;;23.97;9.13;;;;;;;11.85;100.00;99986.73;124360;1105;104202;-78
2023/04/19 07:27:07;;;;;;;24.73;9.07;;;;;;;11.91;100.00;99996.52;124418;1105;102618;-81
2023/04/19 07:29:46;;;;;;;23.83;8.73;;;;;;;11.98;100.00;99996.72;124249;1105;104226;-79
2023/04/19 07:32:20;;;;;;;20.97;8.48;;;;;;;11.93;100.00;99982.56;124445;1106;104360;-79
2023/04/19 07:34:51;;;;;;;20.80;8.75;;;;;;;12.09;100.00;99999.58;124297;1105;104061;-78
2023/04/19 07:37:23;;;;;;;20.23;9.47;;;;;;;12.17;100.00;99991.83;124499;1105;102116;-78
2023/04/19 10:44:29;;;;;;;27.47;7.33;;;;;;;15.17;90.13;99917.97;116104;1093;10001402;-80
2023/04/19 10:47:13;;;;;;;18.30;7.00;;;;;;;15.20;89.73;99924.16;124740;1106;102601;-80
2023/04/19 10:49:54;;;;;;;26.33;6.90;;;;;;;15.22;89.62;99921.52;125365;1105;104143;-80
2023/04/19 10:52:33;;;;;;;19.40;7.80;;;;;;;15.26;88.96;99924.20;124524;1105;104223;-78
2023/04/19 10:55:09;;;;;;;22.07;7.97;;;;;;;15.27;88.20;99918.05;115882;1105;10000934;-77
2023/04/19 10:58:07;;;;;;;23.87;6.87;;;;;;;15.23;87.55;99912.73;124735;1105;104277;-82
2023/04/19 11:00:40;;;;;;;19.00;6.47;;;;;;;15.31;87.83;99913.66;116103;1105;10001623;-77
2023/04/19 11:03:47;;;;;;;20.47;6.97;;;;;;;15.38;88.89;99915.48;124729;1105;102096;-76
2023/04/19 11:06:26;;;;;;;20.50;7.57;;;;;;;15.48;88.79;99902.33;124519;1105;120655;-79
2023/04/19 11:09:01;;;;;;;18.37;6.47;;;;;;;15.58;88.60;99899.75;124841;1105;102866;-81
2023/04/19 11:11:41;;;;;;;20.93;6.43;;;;;;;15.68;86.57;99910.38;124742;1106;104297;-79
2023/04/19 11:14:21;;;;;;;22.17;6.80;;;;;;;15.79;86.00;99898.99;124485;1105;104153;-80
2023/04/19 11:16:57;;;;;;;20.07;6.40;;;;;;;15.99;87.57;99896.44;124587;1105;104383;-80
2023/04/19 11:19:30;;;;;;;24.27;6.57;;;;;;;16.14;86.92;99890.33;125300;1105;102487;-83
2023/04/19 11:22:08;;;;;;;24.67;6.47;;;;;;;16.28;87.10;99905.35;125268;1105;104223;-81
2023/04/19 11:24:45;;;;;;;18.47;6.10;;;;;;;16.29;83.39;99899.19;124388;1105;104320;-79
2023/04/19 11:27:20;;;;;;;19.07;6.40;;;;;;;16.27;84.25;99898.31;125286;1105;109717;-84
2023/04/19 11:30:02;;;;;;;19.47;6.03;;;;;;;16.24;83.99;99895.66;125322;1105;102537;-77
2023/04/19 11:32:35;;;;;;;24.27;6.63;;;;;;;16.21;84.54;99885.05;124637;1105;104267;-78
2023/04/19 11:35:11;;;;;;;25.37;6.83;;;;;;;16.27;84.57;99888.59;124641;1105;104339;-82
2023/04/19 11:37:50;;;;;;;21.77;6.60;;;;;;;16.42;81.90;99894.80;126063;1104;103116;-81
2023/04/19 11:40:27;;;;;;;20.07;5.90;;;;;;;16.54;81.23;99876.28;126122;1102;102273;-80
2023/04/19 11:43:00;;;;;;;21.77;6.03;;;;;;;16.66;82.48;99880.73;126130;1102;101656;-77
2023/04/19 11:45:36;;;;;;;19.93;6.33;;;;;;;16.71;82.46;99873.66;126070;1103;102274;-78
2023/04/19 11:48:25;;;;;;;19.53;6.33;;;;;;;16.66;80.73;99873.66;126037;1105;102556;-83
2023/04/19 11:51:08;;;;;;;25.30;6.40;;;;;;;16.53;78.89;99870.12;126067;1104;102413;-81
2023/04/19 11:53:43;;;;;;;19.80;6.47;;;;;;;16.51;80.48;99868.34;125375;1105;103074;-83
2023/04/19 11:56:19;;;;;;;19.93;5.90;;;;;;;16.51;80.54;99860.39;125031;1105;103455;-85
2023/04/19 11:58:52;;;;;;;16.67;5.73;;;;;;;16.52;80.80;99857.75;124660;1105;104174;-81
2023/04/19 12:01:25;;;;;;;;;;;;;;;16.62;79.84;99857.76;125304;1105;102787;-80
2023/04/19 12:04:00;;;;;;;19.00;5.73;;;;;;;16.70;79.06;99854.24;124613;1105;104271;-80
2023/04/19 12:06:33;;;;;;;21.60;6.72;;;;;;;16.78;80.56;99858.64;124583;1105;102558;-81
2023/04/19 12:09:10;;;;;;;18.60;5.85;;;;;;;16.77;79.41;99857.77;124726;1104;104124;-79
2023/04/19 12:11:48;;;;;;;20.13;6.40;;;;;;;16.65;78.87;99855.98;124628;1105;103424;-80
2023/04/19 12:14:26;;;;;;;19.43;6.33;;;;;;;16.57;79.41;99847.16;124474;1105;102875;-79
2023/04/19 12:17:20;;;;;;;19.90;5.83;;;;;;;16.41;76.61;99855.95;124299;1105;102102;-75
2023/04/19 12:19:50;;;;;;;;;;;;;;;16.32;76.57;99840.95;124307;1105;104629;-78
2023/04/19 12:22:25;;;;;;;21.97;6.30;;;;;;;16.26;78.57;99844.46;124437;1105;102880;-80
2023/04/19 12:25:00;;;;;;;18.75;6.20;;;;;;;16.16;76.77;99846.21;124543;1102;104188;-78
2023/04/19 12:27:32;;;;;;;18.43;6.07;;;;;;;16.09;76.52;99844.42;124408;1105;104195;-78
2023/04/19 12:30:04;;;;;;;21.43;6.47;;;;;;;16.02;75.74;99847.05;124434;1105;104246;-79
2023/04/19 12:32:39;;;;;;;16.77;5.90;;;;;;;15.94;76.62;99844.37;124487;1105;102638;-83
2023/04/19 12:35:14;;;;;;;20.85;6.10;;;;;;;15.88;76.74;99842.61;124510;1105;103571;-82
2023/04/19 12:37:46;;;;;;;22.73;6.50;;;;;;;15.82;77.35;99832.00;124453;1105;104271;-79
2023/04/19 12:40:21;;;;;;;19.10;5.90;;;;;;;15.78;77.22;99835.50;124497;1105;102510;-81
2023/04/19 12:42:53;;;;;;;20.97;6.03;;;;;;;15.73;77.35;99834.58;124470;1105;102601;-79
2023/04/19 12:45:30;;;;;;;19.07;5.70;;;;;;;15.66;76.56;99831.03;126111;1103;102604;-81
2023/04/19 12:48:02;;;;;;;20.23;5.60;;;;;;;15.59;74.87;99837.16;126012;1105;102445;-81
2023/04/19 12:50:35;;;;;;;20.50;5.60;;;;;;;15.56;77.68;99837.14;126033;1104;102905;-80
2023/04/19 12:53:13;;;;;;;23.07;7.70;;;;;;;15.51;78.12;99854.75;125863;1105;101653;-82
2023/04/19 12:55:48;;;;;;;22.23;7.20;;;;;;;15.43;78.92;99870.58;126174;1104;102796;-82
2023/04/19 12:58:21;;;;;;;21.57;6.67;;;;;;;15.30;79.29;99881.94;126098;1103;102223;-83
2023/04/19 13:00:58;;;;;;;22.73;6.93;;;;;;;15.10;80.30;99878.28;126077;1103;101579;-80
2023/04/19 13:03:35;;;;;;;20.17;6.83;;;;;;;14.82;81.04;99876.28;125970;1105;103024;-80
2023/04/19 13:06:08;;;;;;;19.80;6.93;;;;;;;14.56;80.77;99869.00;125796;1105;103428;-80
2023/04/19 13:08:40;;;;;;;22.47;7.23;;;;;;;14.32;81.57;99861.70;126138;1104;101530;-77
2023/04/19 13:11:16;;;;;;;21.97;7.10;;;;;;;14.11;81.96;99873.81;125844;1105;101450;-77
2023/04/19 13:13:52;;;;;;;26.17;7.87;;;;;;;13.91;81.37;99884.13;125921;1105;102559;-78
2023/04/19 13:16:24;;;;;;;22.53;8.30;;;;;;;13.72;81.69;99890.05;125818;1105;103883;-75
2023/04/19 13:18:55;;;;;;;24.93;7.80;;;;;;;13.54;81.99;99886.30;125940;1103;102873;-78
2023/04/19 13:21:33;;;;;;;20.07;8.30;;;;;;;13.47;81.79;99890.58;124607;1105;102260;-79
2023/04/19 13:24:08;;;;;;;28.27;9.20;;;;;;;13.39;83.63;99900.14;124251;1106;102037;-75
2023/04/19 13:26:40;;;;;;;28.52;8.35;;;;;;;13.21;83.89;99892.80;124142;1106;104230;-74
2023/04/19 13:29:12;;;;;;;22.30;8.33;;;;;;;13.09;83.16;99884.73;124351;1105;104176;-75
2023/04/19 13:31:45;;;;;;;24.43;9.33;;;;;;;13.02;83.95;99883.73;124301;1105;104200;-75
2023/04/19 13:34:17;;;;;;;23.07;9.77;;;;;;;13.00;84.19;99881.95;124318;1105;104175;-82
2023/04/19 13:36:51;;;;;;;22.23;9.50;;;;;;;12.99;83.83;99877.54;124189;1105;102000;-79
2023/04/19 13:39:26;;;;;;;20.20;8.90;;;;;;;12.97;84.25;99877.52;124099;1106;104191;-80
2023/04/19 13:42:04;;;;;;;25.27;10.10;;;;;;;12.95;85.36;99871.34;124199;1105;104274;-81
2023/04/19 13:44:35;;;;;;;25.37;9.73;;;;;;;12.93;85.05;99878.31;124443;1104;104236;-81
2023/04/19 13:47:06;;;;;;;21.17;10.37;;;;;;;12.93;85.04;99875.69;124259;1104;104300;-78
2023/04/19 13:49:51;;;;;;;26.63;10.27;;;;;;;12.91;85.14;99870.39;124373;1105;102718;-80
2023/04/19 13:52:23;;;;;;;25.60;10.83;;;;;;;12.93;85.63;99878.31;124352;1105;104370;-80
2023/04/19 13:54:55;;;;;;;28.10;11.00;;;;;;;12.92;85.93;99880.08;124564;1105;103398;-79
2023/04/19 13:57:27;;;;;;;24.00;10.67;;;;;;;12.92;86.18;99869.54;124499;1104;104232;-79
2023/04/19 14:00:05;;;;;;;25.70;10.33;;;;;;;12.90;86.51;99876.54;124369;1105;105784;-78
2023/04/19 14:02:38;;;;;;;24.97;10.50;;;;;;;12.89;86.56;99869.48;124265;1105;104169;-77
2023/04/19 14:05:13;;;;;;;24.27;11.23;;;;;;;12.87;86.78;99871.22;124181;1105;104296;-77
2023/04/19 14:07:49;;;;;;;24.53;11.90;;;;;;;12.85;87.43;99874.68;124145;1105;104265;-78
2023/04/19 14:10:28;;;;;;;22.30;10.83;;;;;;;12.83;88.11;99873.78;124223;1106;108213;-77
2023/04/19 14:13:14;;;;;;;21.50;9.83;;;;;;;12.82;88.17;99874.62;124282;1105;104245;-76
2023/04/19 14:15:49;;;;;;;23.53;10.80;;;;;;;12.77;88.18;99882.45;124315;1105;104227;-76
2023/04/19 14:18:21;;;;;;;28.57;11.50;;;;;;;12.73;88.34;99878.89;124504;1105;104182;-77
2023/04/19 14:20:53;;;;;;;29.25;12.00;;;;;;;12.74;88.24;99869.23;124443;1105;117856;-75
2023/04/19 14:23:25;;;;;;;25.50;10.57;;;;;;;12.72;88.62;99877.11;124357;1105;102153;-78
2023/04/19 14:25:56;;;;;;;24.83;11.90;;;;;;;12.70;89.00;99875.30;124551;1105;104270;-76
2023/04/19 14:28:29;;;;;;;23.83;12.50;;;;;;;12.68;88.70;99884.92;124415;1105;103148;-76
2023/04/19 14:31:03;;;;;;;25.17;11.70;;;;;;;12.67;88.84;99875.24;124324;1105;104182;-78
2023/04/19 14:33:42;;;;;;;27.23;12.67;;;;;;;12.66;88.82;99877.00;124351;1102;103442;-76
2023/04/19 14:36:14;;;;;;;25.83;13.90;;;;;;;12.67;89.07;99878.78;124592;1102;104260;-77
2023/04/19 14:38:48;;;;;;;23.87;10.93;;;;;;;12.71;89.07;99874.45;124652;1102;104253;-81
2023/04/19 14:41:18;;;;;;;;;;;;;;;12.68;90.91;99875.27;124634;1102;108137;-78